Twin Lakes, New Mexico
Current Conditions -  °F | °C
As of 9:53 AM on Monday 22 Dec 2014 (Local Time) from KGUP Reporting Station
Clear Clear  
Wind Chill: 36°   Ceiling: Unl
Heat Index: 43°   Visibility: 10mi
Dew Point: 33°   Wind: 15mph
Humidity: 68%   Direction: 230°SW
Pressure: 29.99"   Gusts: NA
Location:  35.4315°N, 108.724°W
Report Text: KGUP 221653Z AUTO 23013KT 10SM CLR 06/01 A2999 RMK AO2 SLP128 T00610006
Loading
Personal Weather Stations






























Interactive Weather Map New forecast layout! Learn more

10-Day Weather Forecast

Advertisements
Track Severe Weather on mobile